sensor_id;sensor_type;location;lat;lon;timestamp;P1;durP1;ratioP1;P2;durP2;ratioP2
23086;SDS011;11712;51.134;4.156;2022-08-23T00:01:07;0.30;;;0.30;;
23086;SDS011;11712;51.134;4.156;2022-08-23T00:03:36;0.30;;;0.30;;
23086;SDS011;11712;51.134;4.156;2022-08-23T00:06:02;0.35;;;0.35;;
23086;SDS011;11712;51.134;4.156;2022-08-23T00:08:28;0.30;;;0.30;;
23086;SDS011;11712;51.134;4.156;2022-08-23T00:10:54;0.30;;;0.30;;
23086;SDS011;11712;51.134;4.156;2022-08-23T00:13:20;0.30;;;0.30;;
23086;SDS011;11712;51.134;4.156;2022-08-23T00:15:46;0.30;;;0.30;;
23086;SDS011;11712;51.134;4.156;2022-08-23T00:18:12;0.30;;;0.30;;
23086;SDS011;11712;51.134;4.156;2022-08-23T00:20:39;0.30;;;0.30;;
23086;SDS011;11712;51.134;4.156;2022-08-23T00:23:05;0.30;;;0.30;;
23086;SDS011;11712;51.134;4.156;2022-08-23T00:25:31;0.30;;;0.30;;
23086;SDS011;11712;51.134;4.156;2022-08-23T00:27:56;0.35;;;0.35;;
23086;SDS011;11712;51.134;4.156;2022-08-23T00:30:22;0.30;;;0.30;;
23086;SDS011;11712;51.134;4.156;2022-08-23T00:32:48;0.30;;;0.30;;
23086;SDS011;11712;51.134;4.156;2022-08-23T00:35:14;0.30;;;0.30;;
23086;SDS011;11712;51.134;4.156;2022-08-23T00:37:41;0.30;;;0.30;;
23086;SDS011;11712;51.134;4.156;2022-08-23T00:40:11;0.30;;;0.30;;
23086;SDS011;11712;51.134;4.156;2022-08-23T00:42:51;0.30;;;0.30;;
23086;SDS011;11712;51.134;4.156;2022-08-23T00:48:41;0.30;;;0.30;;
23086;SDS011;11712;51.134;4.156;2022-08-23T00:51:11;0.30;;;0.30;;
23086;SDS011;11712;51.134;4.156;2022-08-23T00:53:43;0.30;;;0.30;;
23086;SDS011;11712;51.134;4.156;2022-08-23T00:56:20;0.32;;;0.32;;
23086;SDS011;11712;51.134;4.156;2022-08-23T00:58:47;0.30;;;0.30;;
23086;SDS011;11712;51.134;4.156;2022-08-23T01:01:13;0.30;;;0.30;;
23086;SDS011;11712;51.134;4.156;2022-08-23T01:03:40;0.30;;;0.30;;
23086;SDS011;11712;51.134;4.156;2022-08-23T01:06:10;0.30;;;0.30;;
23086;SDS011;11712;51.134;4.156;2022-08-23T01:08:40;0.30;;;0.30;;
23086;SDS011;11712;51.134;4.156;2022-08-23T01:14:07;0.30;;;0.30;;
23086;SDS011;11712;51.134;4.156;2022-08-23T01:17:29;0.30;;;0.30;;
23086;SDS011;11712;51.134;4.156;2022-08-23T01:19:52;0.30;;;0.30;;
23086;SDS011;11712;51.134;4.156;2022-08-23T01:22:25;0.30;;;0.30;;
23086;SDS011;11712;51.134;4.156;2022-08-23T01:24:53;0.30;;;0.30;;
23086;SDS011;11712;51.134;4.156;2022-08-23T01:27:19;0.40;;;0.40;;
23086;SDS011;11712;51.134;4.156;2022-08-23T01:29:45;0.40;;;0.40;;
23086;SDS011;11712;51.134;4.156;2022-08-23T01:32:11;0.30;;;0.30;;
23086;SDS011;11712;51.134;4.156;2022-08-23T01:34:38;0.30;;;0.30;;
23086;SDS011;11712;51.134;4.156;2022-08-23T01:37:07;0.30;;;0.30;;
23086;SDS011;11712;51.134;4.156;2022-08-23T01:39:33;0.30;;;0.30;;
23086;SDS011;11712;51.134;4.156;2022-08-23T01:41:59;0.30;;;0.30;;
23086;SDS011;11712;51.134;4.156;2022-08-23T01:44:25;0.35;;;0.35;;
23086;SDS011;11712;51.134;4.156;2022-08-23T01:46:51;0.40;;;0.40;;
23086;SDS011;11712;51.134;4.156;2022-08-23T01:49:17;0.32;;;0.32;;
23086;SDS011;11712;51.134;4.156;2022-08-23T01:51:43;0.40;;;0.40;;
23086;SDS011;11712;51.134;4.156;2022-08-23T01:54:09;0.30;;;0.30;;
23086;SDS011;11712;51.134;4.156;2022-08-23T01:56:35;0.40;;;0.40;;
23086;SDS011;11712;51.134;4.156;2022-08-23T01:59:02;0.40;;;0.40;;
23086;SDS011;11712;51.134;4.156;2022-08-23T02:01:28;0.30;;;0.30;;
23086;SDS011;11712;51.134;4.156;2022-08-23T02:03:54;0.30;;;0.30;;
23086;SDS011;11712;51.134;4.156;2022-08-23T02:06:19;0.38;;;0.38;;
23086;SDS011;11712;51.134;4.156;2022-08-23T02:08:45;0.30;;;0.30;;
23086;SDS011;11712;51.134;4.156;2022-08-23T02:11:37;0.40;;;0.40;;
23086;SDS011;11712;51.134;4.156;2022-08-23T02:14:08;0.30;;;0.30;;
23086;SDS011;11712;51.134;4.156;2022-08-23T02:16:38;0.32;;;0.32;;
23086;SDS011;11712;51.134;4.156;2022-08-23T02:19:13;0.30;;;0.30;;
23086;SDS011;11712;51.134;4.156;2022-08-23T02:21:39;0.38;;;0.38;;
23086;SDS011;11712;51.134;4.156;2022-08-23T02:24:10;0.30;;;0.30;;
23086;SDS011;11712;51.134;4.156;2022-08-23T02:26:43;0.40;;;0.40;;
23086;SDS011;11712;51.134;4.156;2022-08-23T02:29:11;0.30;;;0.30;;
23086;SDS011;11712;51.134;4.156;2022-08-23T02:31:38;0.30;;;0.30;;
23086;SDS011;11712;51.134;4.156;2022-08-23T02:34:04;0.40;;;0.40;;
23086;SDS011;11712;51.134;4.156;2022-08-23T02:36:31;0.35;;;0.35;;
23086;SDS011;11712;51.134;4.156;2022-08-23T02:38:57;0.40;;;0.40;;
23086;SDS011;11712;51.134;4.156;2022-08-23T02:41:23;0.40;;;0.40;;
23086;SDS011;11712;51.134;4.156;2022-08-23T02:43:50;0.40;;;0.40;;
23086;SDS011;11712;51.134;4.156;2022-08-23T02:46:17;0.40;;;0.40;;
23086;SDS011;11712;51.134;4.156;2022-08-23T02:48:43;0.40;;;0.40;;
23086;SDS011;11712;51.134;4.156;2022-08-23T02:51:08;0.30;;;0.30;;
23086;SDS011;11712;51.134;4.156;2022-08-23T02:53:34;0.40;;;0.40;;
23086;SDS011;11712;51.134;4.156;2022-08-23T02:56:00;0.40;;;0.40;;
23086;SDS011;11712;51.134;4.156;2022-08-23T02:58:26;0.32;;;0.32;;
23086;SDS011;11712;51.134;4.156;2022-08-23T03:00:52;0.30;;;0.30;;
23086;SDS011;11712;51.134;4.156;2022-08-23T03:03:19;0.40;;;0.40;;
23086;SDS011;11712;51.134;4.156;2022-08-23T03:05:45;0.40;;;0.40;;
23086;SDS011;11712;51.134;4.156;2022-08-23T03:08:12;0.35;;;0.35;;
23086;SDS011;11712;51.134;4.156;2022-08-23T03:10:41;0.38;;;0.38;;
23086;SDS011;11712;51.134;4.156;2022-08-23T03:13:08;0.32;;;0.32;;
23086;SDS011;11712;51.134;4.156;2022-08-23T03:15:34;0.40;;;0.40;;
23086;SDS011;11712;51.134;4.156;2022-08-23T03:17:59;0.30;;;0.30;;
23086;SDS011;11712;51.134;4.156;2022-08-23T03:20:25;0.40;;;0.40;;
23086;SDS011;11712;51.134;4.156;2022-08-23T03:22:52;0.30;;;0.30;;
23086;SDS011;11712;51.134;4.156;2022-08-23T03:25:18;0.30;;;0.30;;
23086;SDS011;11712;51.134;4.156;2022-08-23T03:27:43;0.40;;;0.40;;
23086;SDS011;11712;51.134;4.156;2022-08-23T03:30:09;0.30;;;0.30;;
23086;SDS011;11712;51.134;4.156;2022-08-23T03:32:35;0.40;;;0.40;;
23086;SDS011;11712;51.134;4.156;2022-08-23T03:35:01;0.30;;;0.30;;
23086;SDS011;11712;51.134;4.156;2022-08-23T03:37:27;0.40;;;0.40;;
23086;SDS011;11712;51.134;4.156;2022-08-23T03:39:53;0.30;;;0.30;;
23086;SDS011;11712;51.134;4.156;2022-08-23T03:42:19;0.40;;;0.40;;
23086;SDS011;11712;51.134;4.156;2022-08-23T03:44:44;0.30;;;0.30;;
23086;SDS011;11712;51.134;4.156;2022-08-23T03:47:10;0.40;;;0.40;;
23086;SDS011;11712;51.134;4.156;2022-08-23T03:49:36;0.40;;;0.40;;
23086;SDS011;11712;51.134;4.156;2022-08-23T03:52:03;0.40;;;0.40;;
23086;SDS011;11712;51.134;4.156;2022-08-23T03:54:31;0.40;;;0.40;;
23086;SDS011;11712;51.134;4.156;2022-08-23T03:56:57;0.40;;;0.40;;
23086;SDS011;11712;51.134;4.156;2022-08-23T03:59:27;0.40;;;0.40;;
23086;SDS011;11712;51.134;4.156;2022-08-23T04:01:53;0.30;;;0.30;;
23086;SDS011;11712;51.134;4.156;2022-08-23T04:04:19;0.30;;;0.30;;
23086;SDS011;11712;51.134;4.156;2022-08-23T04:06:45;0.40;;;0.40;;
23086;SDS011;11712;51.134;4.156;2022-08-23T04:09:12;0.30;;;0.30;;
23086;SDS011;11712;51.134;4.156;2022-08-23T04:11:38;0.30;;;0.30;;
23086;SDS011;11712;51.134;4.156;2022-08-23T04:14:04;0.40;;;0.40;;
23086;SDS011;11712;51.134;4.156;2022-08-23T04:16:30;0.40;;;0.40;;
23086;SDS011;11712;51.134;4.156;2022-08-23T04:19:11;0.40;;;0.40;;
23086;SDS011;11712;51.134;4.156;2022-08-23T04:21:38;0.40;;;0.40;;
23086;SDS011;11712;51.134;4.156;2022-08-23T04:24:08;0.38;;;0.38;;
23086;SDS011;11712;51.134;4.156;2022-08-23T04:26:34;0.30;;;0.30;;
23086;SDS011;11712;51.134;4.156;2022-08-23T04:29:00;0.30;;;0.30;;
23086;SDS011;11712;51.134;4.156;2022-08-23T04:31:26;0.30;;;0.30;;
23086;SDS011;11712;51.134;4.156;2022-08-23T04:33:53;0.30;;;0.30;;
23086;SDS011;11712;51.134;4.156;2022-08-23T04:36:20;0.35;;;0.35;;
23086;SDS011;11712;51.134;4.156;2022-08-23T04:38:47;0.40;;;0.40;;
23086;SDS011;11712;51.134;4.156;2022-08-23T04:41:12;0.30;;;0.30;;
23086;SDS011;11712;51.134;4.156;2022-08-23T04:43:57;0.30;;;0.30;;
23086;SDS011;11712;51.134;4.156;2022-08-23T04:46:23;0.30;;;0.30;;
23086;SDS011;11712;51.134;4.156;2022-08-23T04:48:49;0.30;;;0.30;;
23086;SDS011;11712;51.134;4.156;2022-08-23T04:51:15;0.30;;;0.30;;
23086;SDS011;11712;51.134;4.156;2022-08-23T04:53:41;0.40;;;0.40;;
23086;SDS011;11712;51.134;4.156;2022-08-23T04:56:07;0.40;;;0.40;;
23086;SDS011;11712;51.134;4.156;2022-08-23T04:58:34;0.30;;;0.30;;
23086;SDS011;11712;51.134;4.156;2022-08-23T05:01:02;0.30;;;0.30;;
23086;SDS011;11712;51.134;4.156;2022-08-23T05:03:31;0.40;;;0.40;;
23086;SDS011;11712;51.134;4.156;2022-08-23T05:05:57;0.30;;;0.30;;
23086;SDS011;11712;51.134;4.156;2022-08-23T05:08:24;0.40;;;0.40;;
23086;SDS011;11712;51.134;4.156;2022-08-23T05:10:51;0.30;;;0.30;;
23086;SDS011;11712;51.134;4.156;2022-08-23T05:13:16;0.30;;;0.30;;
23086;SDS011;11712;51.134;4.156;2022-08-23T05:15:42;0.40;;;0.40;;
23086;SDS011;11712;51.134;4.156;2022-08-23T05:18:08;0.30;;;0.30;;
23086;SDS011;11712;51.134;4.156;2022-08-23T05:20:35;0.30;;;0.30;;
23086;SDS011;11712;51.134;4.156;2022-08-23T05:23:01;0.40;;;0.40;;
23086;SDS011;11712;51.134;4.156;2022-08-23T05:25:27;0.40;;;0.40;;
23086;SDS011;11712;51.134;4.156;2022-08-23T05:28:13;0.30;;;0.30;;
23086;SDS011;11712;51.134;4.156;2022-08-23T05:30:40;0.30;;;0.30;;
23086;SDS011;11712;51.134;4.156;2022-08-23T05:33:06;0.30;;;0.30;;
23086;SDS011;11712;51.134;4.156;2022-08-23T05:35:31;0.30;;;0.30;;
23086;SDS011;11712;51.134;4.156;2022-08-23T05:37:57;0.30;;;0.30;;
23086;SDS011;11712;51.134;4.156;2022-08-23T05:40:26;0.38;;;0.38;;
23086;SDS011;11712;51.134;4.156;2022-08-23T05:42:52;0.30;;;0.30;;
23086;SDS011;11712;51.134;4.156;2022-08-23T05:45:19;0.30;;;0.30;;
23086;SDS011;11712;51.134;4.156;2022-08-23T05:47:44;0.30;;;0.30;;
23086;SDS011;11712;51.134;4.156;2022-08-23T05:50:10;0.30;;;0.30;;
23086;SDS011;11712;51.134;4.156;2022-08-23T05:52:37;0.30;;;0.30;;
23086;SDS011;11712;51.134;4.156;2022-08-23T05:55:04;0.40;;;0.40;;
23086;SDS011;11712;51.134;4.156;2022-08-23T05:57:33;0.30;;;0.30;;
23086;SDS011;11712;51.134;4.156;2022-08-23T05:59:59;0.30;;;0.30;;
23086;SDS011;11712;51.134;4.156;2022-08-23T06:02:24;0.30;;;0.30;;
23086;SDS011;11712;51.134;4.156;2022-08-23T06:04:50;0.40;;;0.40;;
23086;SDS011;11712;51.134;4.156;2022-08-23T06:07:16;0.40;;;0.40;;
23086;SDS011;11712;51.134;4.156;2022-08-23T06:09:41;0.30;;;0.30;;
23086;SDS011;11712;51.134;4.156;2022-08-23T06:12:07;0.30;;;0.30;;
23086;SDS011;11712;51.134;4.156;2022-08-23T06:14:33;0.30;;;0.30;;
23086;SDS011;11712;51.134;4.156;2022-08-23T06:16:58;0.40;;;0.40;;
23086;SDS011;11712;51.134;4.156;2022-08-23T06:19:24;0.40;;;0.40;;
23086;SDS011;11712;51.134;4.156;2022-08-23T06:21:50;0.40;;;0.40;;
23086;SDS011;11712;51.134;4.156;2022-08-23T06:24:16;0.30;;;0.30;;
23086;SDS011;11712;51.134;4.156;2022-08-23T06:26:42;0.30;;;0.30;;
23086;SDS011;11712;51.134;4.156;2022-08-23T06:29:11;0.30;;;0.30;;
23086;SDS011;11712;51.134;4.156;2022-08-23T06:31:42;0.30;;;0.30;;
23086;SDS011;11712;51.134;4.156;2022-08-23T06:34:18;0.30;;;0.30;;
23086;SDS011;11712;51.134;4.156;2022-08-23T06:36:47;0.30;;;0.30;;
23086;SDS011;11712;51.134;4.156;2022-08-23T06:39:14;0.30;;;0.30;;
23086;SDS011;11712;51.134;4.156;2022-08-23T06:41:41;0.32;;;0.32;;
23086;SDS011;11712;51.134;4.156;2022-08-23T06:44:08;0.30;;;0.30;;
23086;SDS011;11712;51.134;4.156;2022-08-23T06:46:34;0.30;;;0.30;;
23086;SDS011;11712;51.134;4.156;2022-08-23T06:49:00;0.30;;;0.30;;
23086;SDS011;11712;51.134;4.156;2022-08-23T06:53:57;0.30;;;0.30;;
23086;SDS011;11712;51.134;4.156;2022-08-23T06:56:25;0.30;;;0.30;;
23086;SDS011;11712;51.134;4.156;2022-08-23T06:58:52;0.30;;;0.30;;
23086;SDS011;11712;51.134;4.156;2022-08-23T07:01:31;0.30;;;0.30;;
23086;SDS011;11712;51.134;4.156;2022-08-23T07:04:03;0.30;;;0.30;;
23086;SDS011;11712;51.134;4.156;2022-08-23T07:06:30;0.28;;;0.28;;
23086;SDS011;11712;51.134;4.156;2022-08-23T07:08:56;0.30;;;0.30;;
23086;SDS011;11712;51.134;4.156;2022-08-23T07:11:23;0.30;;;0.30;;
23086;SDS011;11712;51.134;4.156;2022-08-23T07:13:49;0.30;;;0.30;;
23086;SDS011;11712;51.134;4.156;2022-08-23T07:16:17;0.30;;;0.30;;
23086;SDS011;11712;51.134;4.156;2022-08-23T07:18:44;0.30;;;0.30;;
23086;SDS011;11712;51.134;4.156;2022-08-23T07:21:10;0.30;;;0.30;;
23086;SDS011;11712;51.134;4.156;2022-08-23T07:23:37;0.30;;;0.30;;
23086;SDS011;11712;51.134;4.156;2022-08-23T07:26:07;0.30;;;0.30;;
23086;SDS011;11712;51.134;4.156;2022-08-23T07:28:35;0.30;;;0.30;;
23086;SDS011;11712;51.134;4.156;2022-08-23T07:31:22;0.30;;;0.30;;
23086;SDS011;11712;51.134;4.156;2022-08-23T07:33:53;0.30;;;0.30;;
23086;SDS011;11712;51.134;4.156;2022-08-23T07:36:21;0.30;;;0.30;;
23086;SDS011;11712;51.134;4.156;2022-08-23T07:38:47;0.30;;;0.30;;
23086;SDS011;11712;51.134;4.156;2022-08-23T07:41:13;0.30;;;0.30;;
23086;SDS011;11712;51.134;4.156;2022-08-23T07:43:41;0.20;;;0.20;;
23086;SDS011;11712;51.134;4.156;2022-08-23T07:46:08;0.30;;;0.30;;
23086;SDS011;11712;51.134;4.156;2022-08-23T07:48:35;0.30;;;0.30;;
23086;SDS011;11712;51.134;4.156;2022-08-23T07:51:02;0.30;;;0.30;;
23086;SDS011;11712;51.134;4.156;2022-08-23T07:53:30;0.30;;;0.30;;
23086;SDS011;11712;51.134;4.156;2022-08-23T07:55:56;0.20;;;0.20;;
23086;SDS011;11712;51.134;4.156;2022-08-23T07:58:22;0.30;;;0.30;;
23086;SDS011;11712;51.134;4.156;2022-08-23T08:00:49;0.30;;;0.30;;
23086;SDS011;11712;51.134;4.156;2022-08-23T08:03:16;0.30;;;0.30;;
23086;SDS011;11712;51.134;4.156;2022-08-23T08:05:42;0.20;;;0.20;;
23086;SDS011;11712;51.134;4.156;2022-08-23T08:08:09;0.30;;;0.30;;
23086;SDS011;11712;51.134;4.156;2022-08-23T08:10:40;0.30;;;0.30;;
23086;SDS011;11712;51.134;4.156;2022-08-23T08:13:08;0.30;;;0.30;;
23086;SDS011;11712;51.134;4.156;2022-08-23T08:15:33;0.20;;;0.20;;
23086;SDS011;11712;51.134;4.156;2022-08-23T08:17:59;0.30;;;0.30;;
23086;SDS011;11712;51.134;4.156;2022-08-23T08:20:26;0.30;;;0.30;;
23086;SDS011;11712;51.134;4.156;2022-08-23T08:22:53;0.30;;;0.30;;
23086;SDS011;11712;51.134;4.156;2022-08-23T08:25:19;0.30;;;0.30;;
23086;SDS011;11712;51.134;4.156;2022-08-23T08:27:44;0.30;;;0.30;;
23086;SDS011;11712;51.134;4.156;2022-08-23T08:30:10;0.30;;;0.30;;
23086;SDS011;11712;51.134;4.156;2022-08-23T08:32:37;0.30;;;0.30;;
23086;SDS011;11712;51.134;4.156;2022-08-23T08:35:03;0.30;;;0.30;;
23086;SDS011;11712;51.134;4.156;2022-08-23T08:37:30;0.30;;;0.30;;
23086;SDS011;11712;51.134;4.156;2022-08-23T08:39:56;0.30;;;0.30;;
23086;SDS011;11712;51.134;4.156;2022-08-23T08:44:57;0.30;;;0.30;;
23086;SDS011;11712;51.134;4.156;2022-08-23T08:47:37;0.30;;;0.30;;
23086;SDS011;11712;51.134;4.156;2022-08-23T08:53:12;0.30;;;0.30;;
23086;SDS011;11712;51.134;4.156;2022-08-23T08:55:49;0.30;;;0.30;;
23086;SDS011;11712;51.134;4.156;2022-08-23T08:58:23;0.30;;;0.30;;
23086;SDS011;11712;51.134;4.156;2022-08-23T09:01:23;0.20;;;0.20;;
23086;SDS011;11712;51.134;4.156;2022-08-23T09:03:50;0.30;;;0.30;;
23086;SDS011;11712;51.134;4.156;2022-08-23T09:08:55;0.30;;;0.30;;
23086;SDS011;11712;51.134;4.156;2022-08-23T09:14:29;0.30;;;0.30;;
23086;SDS011;11712;51.134;4.156;2022-08-23T09:17:03;0.30;;;0.30;;
23086;SDS011;11712;51.134;4.156;2022-08-23T09:19:43;0.25;;;0.25;;
23086;SDS011;11712;51.134;4.156;2022-08-23T09:22:15;0.28;;;0.28;;
23086;SDS011;11712;51.134;4.156;2022-08-23T09:24:49;0.30;;;0.30;;
23086;SDS011;11712;51.134;4.156;2022-08-23T09:27:15;0.30;;;0.30;;
23086;SDS011;11712;51.134;4.156;2022-08-23T09:29:50;0.30;;;0.30;;
23086;SDS011;11712;51.134;4.156;2022-08-23T09:35:07;0.30;;;0.30;;
23086;SDS011;11712;51.134;4.156;2022-08-23T09:40:15;0.20;;;0.20;;
23086;SDS011;11712;51.134;4.156;2022-08-23T09:43:06;0.30;;;0.30;;
23086;SDS011;11712;51.134;4.156;2022-08-23T09:45:36;0.30;;;0.30;;
23086;SDS011;11712;51.134;4.156;2022-08-23T09:48:04;0.30;;;0.30;;
23086;SDS011;11712;51.134;4.156;2022-08-23T09:50:38;0.30;;;0.30;;
23086;SDS011;11712;51.134;4.156;2022-08-23T09:53:15;0.30;;;0.30;;
23086;SDS011;11712;51.134;4.156;2022-08-23T09:55:51;0.30;;;0.30;;
23086;SDS011;11712;51.134;4.156;2022-08-23T09:58:38;0.30;;;0.30;;
23086;SDS011;11712;51.134;4.156;2022-08-23T10:03:39;0.30;;;0.30;;
23086;SDS011;11712;51.134;4.156;2022-08-23T10:06:06;0.30;;;0.30;;
23086;SDS011;11712;51.134;4.156;2022-08-23T10:08:35;0.30;;;0.30;;
23086;SDS011;11712;51.134;4.156;2022-08-23T10:11:15;0.30;;;0.30;;
23086;SDS011;11712;51.134;4.156;2022-08-23T10:13:43;0.30;;;0.30;;
23086;SDS011;11712;51.134;4.156;2022-08-23T10:19:05;0.30;;;0.30;;
23086;SDS011;11712;51.134;4.156;2022-08-23T10:24:46;0.30;;;0.30;;
23086;SDS011;11712;51.134;4.156;2022-08-23T10:27:21;0.30;;;0.30;;
23086;SDS011;11712;51.134;4.156;2022-08-23T10:30:16;0.20;;;0.20;;
23086;SDS011;11712;51.134;4.156;2022-08-23T10:45:50;0.20;;;0.20;;
23086;SDS011;11712;51.134;4.156;2022-08-23T10:48:24;0.30;;;0.30;;
23086;SDS011;11712;51.134;4.156;2022-08-23T10:50:58;0.30;;;0.30;;
23086;SDS011;11712;51.134;4.156;2022-08-23T10:56:59;0.30;;;0.30;;
23086;SDS011;11712;51.134;4.156;2022-08-23T10:59:29;0.28;;;0.28;;
23086;SDS011;11712;51.134;4.156;2022-08-23T11:02:23;0.30;;;0.30;;
23086;SDS011;11712;51.134;4.156;2022-08-23T11:07:26;0.30;;;0.30;;
23086;SDS011;11712;51.134;4.156;2022-08-23T11:09:55;0.28;;;0.28;;
23086;SDS011;11712;51.134;4.156;2022-08-23T11:12:26;0.20;;;0.20;;
23086;SDS011;11712;51.134;4.156;2022-08-23T11:15:08;0.20;;;0.20;;
23086;SDS011;11712;51.134;4.156;2022-08-23T11:23:15;0.22;;;0.22;;
23086;SDS011;11712;51.134;4.156;2022-08-23T11:26:00;0.30;;;0.30;;
23086;SDS011;11712;51.134;4.156;2022-08-23T11:28:37;0.20;;;0.20;;
23086;SDS011;11712;51.134;4.156;2022-08-23T11:33:34;0.22;;;0.22;;
23086;SDS011;11712;51.134;4.156;2022-08-23T11:41:22;0.20;;;0.20;;
23086;SDS011;11712;51.134;4.156;2022-08-23T12:00:32;0.20;;;0.20;;
23086;SDS011;11712;51.134;4.156;2022-08-23T12:08:54;0.20;;;0.20;;
23086;SDS011;11712;51.134;4.156;2022-08-23T12:19:40;0.20;;;0.20;;
23086;SDS011;11712;51.134;4.156;2022-08-23T12:22:30;0.30;;;0.30;;
23086;SDS011;11712;51.134;4.156;2022-08-23T12:25:18;0.20;;;0.20;;
23086;SDS011;11712;51.134;4.156;2022-08-23T12:27:46;0.20;;;0.20;;
23086;SDS011;11712;51.134;4.156;2022-08-23T12:30:18;0.30;;;0.30;;
23086;SDS011;11712;51.134;4.156;2022-08-23T12:38:09;0.20;;;0.20;;
23086;SDS011;11712;51.134;4.156;2022-08-23T12:40:37;0.30;;;0.30;;
23086;SDS011;11712;51.134;4.156;2022-08-23T12:43:20;0.20;;;0.20;;
23086;SDS011;11712;51.134;4.156;2022-08-23T12:45:59;0.30;;;0.30;;
23086;SDS011;11712;51.134;4.156;2022-08-23T12:48:27;0.30;;;0.30;;
23086;SDS011;11712;51.134;4.156;2022-08-23T12:51:01;0.30;;;0.30;;
23086;SDS011;11712;51.134;4.156;2022-08-23T12:53:32;0.30;;;0.30;;
23086;SDS011;11712;51.134;4.156;2022-08-23T12:56:04;0.20;;;0.20;;
23086;SDS011;11712;51.134;4.156;2022-08-23T12:58:38;0.30;;;0.30;;
23086;SDS011;11712;51.134;4.156;2022-08-23T13:01:16;0.28;;;0.28;;
23086;SDS011;11712;51.134;4.156;2022-08-23T13:03:45;0.30;;;0.30;;
23086;SDS011;11712;51.134;4.156;2022-08-23T13:06:26;0.25;;;0.25;;
23086;SDS011;11712;51.134;4.156;2022-08-23T13:11:37;0.30;;;0.30;;
23086;SDS011;11712;51.134;4.156;2022-08-23T13:16:50;0.20;;;0.20;;
23086;SDS011;11712;51.134;4.156;2022-08-23T13:19:29;0.20;;;0.20;;
23086;SDS011;11712;51.134;4.156;2022-08-23T13:24:44;0.20;;;0.20;;
23086;SDS011;11712;51.134;4.156;2022-08-23T13:27:24;0.20;;;0.20;;
23086;SDS011;11712;51.134;4.156;2022-08-23T13:32:24;0.20;;;0.20;;
23086;SDS011;11712;51.134;4.156;2022-08-23T13:38:13;0.28;;;0.28;;
23086;SDS011;11712;51.134;4.156;2022-08-23T13:43:27;0.28;;;0.28;;
23086;SDS011;11712;51.134;4.156;2022-08-23T13:46:09;0.30;;;0.30;;
23086;SDS011;11712;51.134;4.156;2022-08-23T13:49:28;0.30;;;0.30;;
23086;SDS011;11712;51.134;4.156;2022-08-23T13:51:36;0.20;;;0.20;;
23086;SDS011;11712;51.134;4.156;2022-08-23T13:54:08;0.30;;;0.30;;
23086;SDS011;11712;51.134;4.156;2022-08-23T13:56:46;0.30;;;0.30;;
23086;SDS011;11712;51.134;4.156;2022-08-23T14:01:52;0.20;;;0.20;;
23086;SDS011;11712;51.134;4.156;2022-08-23T14:04:18;0.20;;;0.20;;
23086;SDS011;11712;51.134;4.156;2022-08-23T14:06:44;0.20;;;0.20;;
23086;SDS011;11712;51.134;4.156;2022-08-23T14:09:10;0.20;;;0.20;;
23086;SDS011;11712;51.134;4.156;2022-08-23T14:11:36;0.20;;;0.20;;
23086;SDS011;11712;51.134;4.156;2022-08-23T14:14:02;0.20;;;0.20;;
23086;SDS011;11712;51.134;4.156;2022-08-23T14:16:30;0.25;;;0.25;;
23086;SDS011;11712;51.134;4.156;2022-08-23T14:21:28;0.30;;;0.30;;
23086;SDS011;11712;51.134;4.156;2022-08-23T14:23:54;0.20;;;0.20;;
23086;SDS011;11712;51.134;4.156;2022-08-23T14:26:19;0.20;;;0.20;;
23086;SDS011;11712;51.134;4.156;2022-08-23T14:28:56;0.20;;;0.20;;
23086;SDS011;11712;51.134;4.156;2022-08-23T14:31:31;0.30;;;0.30;;
23086;SDS011;11712;51.134;4.156;2022-08-23T14:33:57;0.30;;;0.30;;
23086;SDS011;11712;51.134;4.156;2022-08-23T14:36:23;0.20;;;0.20;;
23086;SDS011;11712;51.134;4.156;2022-08-23T14:38:48;0.20;;;0.20;;
23086;SDS011;11712;51.134;4.156;2022-08-23T14:41:18;0.20;;;0.20;;
23086;SDS011;11712;51.134;4.156;2022-08-23T14:43:47;0.20;;;0.20;;
23086;SDS011;11712;51.134;4.156;2022-08-23T14:46:13;0.20;;;0.20;;
23086;SDS011;11712;51.134;4.156;2022-08-23T14:48:39;0.20;;;0.20;;
23086;SDS011;11712;51.134;4.156;2022-08-23T14:51:05;0.20;;;0.20;;
23086;SDS011;11712;51.134;4.156;2022-08-23T14:53:36;0.20;;;0.20;;
23086;SDS011;11712;51.134;4.156;2022-08-23T14:56:02;0.20;;;0.20;;
23086;SDS011;11712;51.134;4.156;2022-08-23T14:58:28;0.20;;;0.20;;
23086;SDS011;11712;51.134;4.156;2022-08-23T15:00:53;0.20;;;0.20;;
23086;SDS011;11712;51.134;4.156;2022-08-23T15:03:21;0.20;;;0.20;;
23086;SDS011;11712;51.134;4.156;2022-08-23T15:05:49;0.20;;;0.20;;
23086;SDS011;11712;51.134;4.156;2022-08-23T15:08:15;0.20;;;0.20;;
23086;SDS011;11712;51.134;4.156;2022-08-23T15:10:41;0.20;;;0.20;;
23086;SDS011;11712;51.134;4.156;2022-08-23T15:13:07;0.20;;;0.20;;
23086;SDS011;11712;51.134;4.156;2022-08-23T15:15:33;0.20;;;0.20;;
23086;SDS011;11712;51.134;4.156;2022-08-23T15:18:00;0.20;;;0.20;;
23086;SDS011;11712;51.134;4.156;2022-08-23T15:20:31;0.20;;;0.20;;
23086;SDS011;11712;51.134;4.156;2022-08-23T15:23:00;0.20;;;0.20;;
23086;SDS011;11712;51.134;4.156;2022-08-23T15:25:30;0.20;;;0.20;;
23086;SDS011;11712;51.134;4.156;2022-08-23T15:27:59;0.20;;;0.20;;
23086;SDS011;11712;51.134;4.156;2022-08-23T15:30:28;0.20;;;0.20;;
23086;SDS011;11712;51.134;4.156;2022-08-23T15:32:54;0.20;;;0.20;;
23086;SDS011;11712;51.134;4.156;2022-08-23T15:35:20;0.20;;;0.20;;
23086;SDS011;11712;51.134;4.156;2022-08-23T15:37:46;0.20;;;0.20;;
23086;SDS011;11712;51.134;4.156;2022-08-23T15:40:12;0.20;;;0.20;;
23086;SDS011;11712;51.134;4.156;2022-08-23T15:42:39;0.20;;;0.20;;
23086;SDS011;11712;51.134;4.156;2022-08-23T15:45:05;0.20;;;0.20;;
23086;SDS011;11712;51.134;4.156;2022-08-23T15:47:36;0.20;;;0.20;;
23086;SDS011;11712;51.134;4.156;2022-08-23T15:50:20;0.22;;;0.22;;
23086;SDS011;11712;51.134;4.156;2022-08-23T15:52:51;0.20;;;0.20;;
23086;SDS011;11712;51.134;4.156;2022-08-23T15:55:17;0.20;;;0.20;;
23086;SDS011;11712;51.134;4.156;2022-08-23T15:57:45;0.20;;;0.20;;
23086;SDS011;11712;51.134;4.156;2022-08-23T16:00:13;0.20;;;0.20;;
23086;SDS011;11712;51.134;4.156;2022-08-23T16:02:42;0.20;;;0.20;;
23086;SDS011;11712;51.134;4.156;2022-08-23T16:05:08;0.20;;;0.20;;
23086;SDS011;11712;51.134;4.156;2022-08-23T16:07:34;0.20;;;0.20;;
23086;SDS011;11712;51.134;4.156;2022-08-23T16:10:01;0.20;;;0.20;;
23086;SDS011;11712;51.134;4.156;2022-08-23T16:12:30;0.20;;;0.20;;
23086;SDS011;11712;51.134;4.156;2022-08-23T16:14:57;0.20;;;0.20;;
23086;SDS011;11712;51.134;4.156;2022-08-23T16:17:23;0.20;;;0.20;;
23086;SDS011;11712;51.134;4.156;2022-08-23T16:19:49;0.20;;;0.20;;
23086;SDS011;11712;51.134;4.156;2022-08-23T16:22:15;0.20;;;0.20;;
23086;SDS011;11712;51.134;4.156;2022-08-23T16:24:41;0.20;;;0.20;;
23086;SDS011;11712;51.134;4.156;2022-08-23T16:27:07;0.20;;;0.20;;
23086;SDS011;11712;51.134;4.156;2022-08-23T16:29:33;0.20;;;0.20;;
23086;SDS011;11712;51.134;4.156;2022-08-23T16:32:00;0.20;;;0.20;;
23086;SDS011;11712;51.134;4.156;2022-08-23T16:34:27;0.20;;;0.20;;
23086;SDS011;11712;51.134;4.156;2022-08-23T16:36:54;0.20;;;0.20;;
23086;SDS011;11712;51.134;4.156;2022-08-23T16:39:22;0.20;;;0.20;;
23086;SDS011;11712;51.134;4.156;2022-08-23T16:41:48;0.20;;;0.20;;
23086;SDS011;11712;51.134;4.156;2022-08-23T16:44:14;0.20;;;0.20;;
23086;SDS011;11712;51.134;4.156;2022-08-23T16:46:39;0.20;;;0.20;;
23086;SDS011;11712;51.134;4.156;2022-08-23T16:49:10;0.20;;;0.20;;
23086;SDS011;11712;51.134;4.156;2022-08-23T16:51:38;0.20;;;0.20;;
23086;SDS011;11712;51.134;4.156;2022-08-23T16:54:04;0.20;;;0.20;;
23086;SDS011;11712;51.134;4.156;2022-08-23T16:56:32;0.20;;;0.20;;
23086;SDS011;11712;51.134;4.156;2022-08-23T16:58:59;0.20;;;0.20;;
23086;SDS011;11712;51.134;4.156;2022-08-23T17:01:26;0.20;;;0.20;;
23086;SDS011;11712;51.134;4.156;2022-08-23T17:03:52;0.20;;;0.20;;